sensor_id;sensor_type;location;lat;lon;timestamp;P1;durP1;ratioP1;P2;durP2;ratioP2
22995;SDS011;11664;49.774;8.650;2023-02-26T00:00:27;3.80;;;3.50;;
22995;SDS011;11664;49.774;8.650;2023-02-26T00:02:56;4.07;;;3.40;;
22995;SDS011;11664;49.774;8.650;2023-02-26T00:05:34;4.05;;;3.60;;
22995;SDS011;11664;49.774;8.650;2023-02-26T00:08:15;3.53;;;3.33;;
22995;SDS011;11664;49.774;8.650;2023-02-26T00:10:47;5.30;;;3.85;;
22995;SDS011;11664;49.774;8.650;2023-02-26T00:13:13;3.55;;;3.35;;
22995;SDS011;11664;49.774;8.650;2023-02-26T00:15:45;7.75;;;3.60;;
22995;SDS011;11664;49.774;8.650;2023-02-26T00:18:15;4.63;;;4.22;;
22995;SDS011;11664;49.774;8.650;2023-02-26T00:20:47;4.15;;;3.72;;
22995;SDS011;11664;49.774;8.650;2023-02-26T00:23:13;4.63;;;4.03;;
22995;SDS011;11664;49.774;8.650;2023-02-26T00:25:45;4.30;;;4.00;;
22995;SDS011;11664;49.774;8.650;2023-02-26T00:28:14;4.65;;;3.70;;
22995;SDS011;11664;49.774;8.650;2023-02-26T00:30:49;7.32;;;3.70;;
22995;SDS011;11664;49.774;8.650;2023-02-26T00:33:15;3.40;;;3.20;;
22995;SDS011;11664;49.774;8.650;2023-02-26T00:35:50;4.18;;;3.65;;
22995;SDS011;11664;49.774;8.650;2023-02-26T00:38:22;3.65;;;3.45;;
22995;SDS011;11664;49.774;8.650;2023-02-26T00:40:55;4.07;;;3.72;;
22995;SDS011;11664;49.774;8.650;2023-02-26T00:43:26;3.50;;;3.30;;
22995;SDS011;11664;49.774;8.650;2023-02-26T00:52:01;3.40;;;3.30;;
22995;SDS011;11664;49.774;8.650;2023-02-26T00:54:33;3.50;;;3.30;;
22995;SDS011;11664;49.774;8.650;2023-02-26T00:57:04;3.75;;;3.55;;
22995;SDS011;11664;49.774;8.650;2023-02-26T00:59:42;10.40;;;3.40;;
22995;SDS011;11664;49.774;8.650;2023-02-26T01:02:14;4.25;;;3.90;;
22995;SDS011;11664;49.774;8.650;2023-02-26T01:04:40;4.72;;;4.40;;
22995;SDS011;11664;49.774;8.650;2023-02-26T01:07:06;7.28;;;3.63;;
22995;SDS011;11664;49.774;8.650;2023-02-26T01:09:35;5.45;;;3.80;;
22995;SDS011;11664;49.774;8.650;2023-02-26T01:12:09;3.47;;;3.30;;
22995;SDS011;11664;49.774;8.650;2023-02-26T01:14:37;4.05;;;3.75;;
22995;SDS011;11664;49.774;8.650;2023-02-26T01:17:07;3.22;;;3.05;;
22995;SDS011;11664;49.774;8.650;2023-02-26T01:20:06;3.58;;;3.38;;
22995;SDS011;11664;49.774;8.650;2023-02-26T01:28:08;3.60;;;3.35;;
22995;SDS011;11664;49.774;8.650;2023-02-26T01:30:40;3.42;;;3.22;;
22995;SDS011;11664;49.774;8.650;2023-02-26T01:36:21;3.63;;;3.40;;
22995;SDS011;11664;49.774;8.650;2023-02-26T01:39:09;3.88;;;3.45;;
22995;SDS011;11664;49.774;8.650;2023-02-26T01:42:26;3.75;;;3.55;;
22995;SDS011;11664;49.774;8.650;2023-02-26T01:48:06;3.47;;;3.28;;
22995;SDS011;11664;49.774;8.650;2023-02-26T01:50:44;3.88;;;3.60;;
22995;SDS011;11664;49.774;8.650;2023-02-26T01:53:18;3.42;;;3.22;;
22995;SDS011;11664;49.774;8.650;2023-02-26T01:55:56;3.58;;;3.33;;
22995;SDS011;11664;49.774;8.650;2023-02-26T01:58:26;4.07;;;3.67;;
22995;SDS011;11664;49.774;8.650;2023-02-26T02:04:12;5.55;;;5.15;;
22995;SDS011;11664;49.774;8.650;2023-02-26T02:06:45;6.20;;;5.40;;
22995;SDS011;11664;49.774;8.650;2023-02-26T02:09:15;6.32;;;5.78;;
22995;SDS011;11664;49.774;8.650;2023-02-26T02:12:01;4.43;;;4.13;;
22995;SDS011;11664;49.774;8.650;2023-02-26T02:32:27;4.18;;;3.75;;
22995;SDS011;11664;49.774;8.650;2023-02-26T02:40:35;5.10;;;3.47;;
22995;SDS011;11664;49.774;8.650;2023-02-26T02:43:17;6.43;;;3.42;;
22995;SDS011;11664;49.774;8.650;2023-02-26T02:48:42;3.53;;;3.33;;
22995;SDS011;11664;49.774;8.650;2023-02-26T02:51:23;4.35;;;3.05;;
22995;SDS011;11664;49.774;8.650;2023-02-26T02:53:54;4.00;;;3.40;;
22995;SDS011;11664;49.774;8.650;2023-02-26T02:56:33;3.53;;;3.33;;
22995;SDS011;11664;49.774;8.650;2023-02-26T02:59:09;3.88;;;3.65;;
22995;SDS011;11664;49.774;8.650;2023-02-26T03:04:52;10.25;;;3.38;;
22995;SDS011;11664;49.774;8.650;2023-02-26T03:07:20;7.63;;;3.78;;
22995;SDS011;11664;49.774;8.650;2023-02-26T03:09:54;3.63;;;3.35;;
22995;SDS011;11664;49.774;8.650;2023-02-26T03:12:20;3.65;;;3.35;;
22995;SDS011;11664;49.774;8.650;2023-02-26T03:15:01;10.32;;;3.53;;
22995;SDS011;11664;49.774;8.650;2023-02-26T03:20:33;3.67;;;3.42;;
22995;SDS011;11664;49.774;8.650;2023-02-26T03:23:06;3.40;;;3.20;;
22995;SDS011;11664;49.774;8.650;2023-02-26T03:47:05;6.10;;;3.20;;
22995;SDS011;11664;49.774;8.650;2023-02-26T03:52:41;4.43;;;3.47;;
22995;SDS011;11664;49.774;8.650;2023-02-26T03:55:24;3.75;;;3.47;;
22995;SDS011;11664;49.774;8.650;2023-02-26T03:58:03;4.15;;;3.75;;
22995;SDS011;11664;49.774;8.650;2023-02-26T04:00:32;3.75;;;3.53;;
22995;SDS011;11664;49.774;8.650;2023-02-26T04:03:11;3.70;;;3.40;;
22995;SDS011;11664;49.774;8.650;2023-02-26T04:05:44;3.25;;;3.05;;
22995;SDS011;11664;49.774;8.650;2023-02-26T04:08:13;3.65;;;3.20;;
22995;SDS011;11664;49.774;8.650;2023-02-26T04:10:46;4.97;;;3.53;;
22995;SDS011;11664;49.774;8.650;2023-02-26T04:13:23;3.88;;;3.58;;
22995;SDS011;11664;49.774;8.650;2023-02-26T04:15:50;3.13;;;3.03;;
22995;SDS011;11664;49.774;8.650;2023-02-26T04:18:15;3.40;;;3.30;;
22995;SDS011;11664;49.774;8.650;2023-02-26T04:20:41;3.47;;;3.28;;
22995;SDS011;11664;49.774;8.650;2023-02-26T04:23:12;3.95;;;3.20;;
22995;SDS011;11664;49.774;8.650;2023-02-26T04:25:41;3.83;;;3.53;;
22995;SDS011;11664;49.774;8.650;2023-02-26T04:28:12;3.33;;;3.00;;
22995;SDS011;11664;49.774;8.650;2023-02-26T04:30:38;4.78;;;3.22;;
22995;SDS011;11664;49.774;8.650;2023-02-26T04:33:03;6.93;;;3.20;;
22995;SDS011;11664;49.774;8.650;2023-02-26T04:35:38;4.10;;;3.80;;
22995;SDS011;11664;49.774;8.650;2023-02-26T04:38:09;5.50;;;3.20;;
22995;SDS011;11664;49.774;8.650;2023-02-26T04:40:35;3.42;;;3.22;;
22995;SDS011;11664;49.774;8.650;2023-02-26T04:43:07;16.33;;;3.70;;
22995;SDS011;11664;49.774;8.650;2023-02-26T04:45:45;3.20;;;3.10;;
22995;SDS011;11664;49.774;8.650;2023-02-26T04:48:12;3.30;;;3.20;;
22995;SDS011;11664;49.774;8.650;2023-02-26T04:50:38;3.58;;;3.38;;
22995;SDS011;11664;49.774;8.650;2023-02-26T04:53:07;4.03;;;3.70;;
22995;SDS011;11664;49.774;8.650;2023-02-26T04:55:33;3.63;;;3.35;;
22995;SDS011;11664;49.774;8.650;2023-02-26T04:57:59;3.15;;;3.05;;
22995;SDS011;11664;49.774;8.650;2023-02-26T05:00:25;3.80;;;3.28;;
22995;SDS011;11664;49.774;8.650;2023-02-26T05:02:54;3.45;;;3.25;;
22995;SDS011;11664;49.774;8.650;2023-02-26T05:05:23;3.38;;;3.17;;
22995;SDS011;11664;49.774;8.650;2023-02-26T05:07:51;6.03;;;3.63;;
22995;SDS011;11664;49.774;8.650;2023-02-26T05:10:19;3.33;;;3.13;;
22995;SDS011;11664;49.774;8.650;2023-02-26T05:12:48;3.47;;;3.28;;
22995;SDS011;11664;49.774;8.650;2023-02-26T05:15:14;3.38;;;3.17;;
22995;SDS011;11664;49.774;8.650;2023-02-26T05:17:43;4.20;;;3.85;;
22995;SDS011;11664;49.774;8.650;2023-02-26T05:20:11;3.72;;;3.55;;
22995;SDS011;11664;49.774;8.650;2023-02-26T05:22:40;3.92;;;3.63;;
22995;SDS011;11664;49.774;8.650;2023-02-26T05:25:09;6.20;;;5.57;;
22995;SDS011;11664;49.774;8.650;2023-02-26T05:27:39;3.80;;;3.67;;
22995;SDS011;11664;49.774;8.650;2023-02-26T05:30:06;5.03;;;4.72;;
22995;SDS011;11664;49.774;8.650;2023-02-26T05:32:39;5.25;;;4.95;;
22995;SDS011;11664;49.774;8.650;2023-02-26T05:35:05;4.38;;;4.07;;
22995;SDS011;11664;49.774;8.650;2023-02-26T05:37:35;3.75;;;3.55;;
22995;SDS011;11664;49.774;8.650;2023-02-26T05:40:05;8.05;;;3.50;;
22995;SDS011;11664;49.774;8.650;2023-02-26T05:42:40;3.67;;;3.40;;
22995;SDS011;11664;49.774;8.650;2023-02-26T05:45:11;4.55;;;3.78;;
22995;SDS011;11664;49.774;8.650;2023-02-26T05:47:40;3.63;;;3.42;;
22995;SDS011;11664;49.774;8.650;2023-02-26T05:50:09;4.00;;;3.53;;
22995;SDS011;11664;49.774;8.650;2023-02-26T05:52:35;4.20;;;3.90;;
22995;SDS011;11664;49.774;8.650;2023-02-26T05:55:01;4.50;;;4.10;;
22995;SDS011;11664;49.774;8.650;2023-02-26T05:57:26;3.40;;;3.22;;
22995;SDS011;11664;49.774;8.650;2023-02-26T05:59:55;3.65;;;3.35;;
22995;SDS011;11664;49.774;8.650;2023-02-26T06:02:26;3.67;;;3.45;;
22995;SDS011;11664;49.774;8.650;2023-02-26T06:04:52;3.47;;;3.17;;
22995;SDS011;11664;49.774;8.650;2023-02-26T06:07:18;4.07;;;3.70;;
22995;SDS011;11664;49.774;8.650;2023-02-26T06:09:43;6.93;;;3.95;;
22995;SDS011;11664;49.774;8.650;2023-02-26T06:12:09;3.80;;;3.60;;
22995;SDS011;11664;49.774;8.650;2023-02-26T06:17:32;3.30;;;3.10;;
22995;SDS011;11664;49.774;8.650;2023-02-26T06:19:58;3.35;;;3.15;;
22995;SDS011;11664;49.774;8.650;2023-02-26T06:22:27;3.80;;;3.60;;
22995;SDS011;11664;49.774;8.650;2023-02-26T06:24:55;4.10;;;3.72;;
22995;SDS011;11664;49.774;8.650;2023-02-26T06:27:27;8.18;;;3.53;;
22995;SDS011;11664;49.774;8.650;2023-02-26T06:29:55;3.63;;;3.42;;
22995;SDS011;11664;49.774;8.650;2023-02-26T06:32:21;3.22;;;3.13;;
22995;SDS011;11664;49.774;8.650;2023-02-26T06:34:54;3.72;;;3.53;;
22995;SDS011;11664;49.774;8.650;2023-02-26T06:37:26;4.10;;;3.90;;
22995;SDS011;11664;49.774;8.650;2023-02-26T06:39:54;4.35;;;4.05;;
22995;SDS011;11664;49.774;8.650;2023-02-26T06:42:23;3.83;;;3.60;;
22995;SDS011;11664;49.774;8.650;2023-02-26T06:44:54;3.80;;;3.50;;
22995;SDS011;11664;49.774;8.650;2023-02-26T06:47:21;4.22;;;3.92;;
22995;SDS011;11664;49.774;8.650;2023-02-26T06:49:53;4.10;;;3.85;;
22995;SDS011;11664;49.774;8.650;2023-02-26T06:52:21;3.88;;;3.67;;
22995;SDS011;11664;49.774;8.650;2023-02-26T06:54:50;3.90;;;3.70;;
22995;SDS011;11664;49.774;8.650;2023-02-26T06:57:18;3.83;;;3.60;;
22995;SDS011;11664;49.774;8.650;2023-02-26T06:59:47;3.63;;;3.42;;
22995;SDS011;11664;49.774;8.650;2023-02-26T07:02:18;4.15;;;3.95;;
22995;SDS011;11664;49.774;8.650;2023-02-26T07:04:57;4.97;;;4.60;;
22995;SDS011;11664;49.774;8.650;2023-02-26T07:07:22;5.68;;;4.47;;
22995;SDS011;11664;49.774;8.650;2023-02-26T07:10:03;5.20;;;4.82;;
22995;SDS011;11664;49.774;8.650;2023-02-26T07:12:29;5.93;;;4.67;;
22995;SDS011;11664;49.774;8.650;2023-02-26T07:18:17;3.85;;;3.55;;
22995;SDS011;11664;49.774;8.650;2023-02-26T07:20:43;3.80;;;3.50;;
22995;SDS011;11664;49.774;8.650;2023-02-26T07:23:09;3.60;;;3.40;;
22995;SDS011;11664;49.774;8.650;2023-02-26T07:25:35;3.55;;;3.35;;
22995;SDS011;11664;49.774;8.650;2023-02-26T07:28:01;3.83;;;3.50;;
22995;SDS011;11664;49.774;8.650;2023-02-26T07:30:33;4.10;;;3.80;;
22995;SDS011;11664;49.774;8.650;2023-02-26T07:33:17;4.18;;;3.97;;
22995;SDS011;11664;49.774;8.650;2023-02-26T07:35:48;4.70;;;4.40;;
22995;SDS011;11664;49.774;8.650;2023-02-26T07:38:20;5.60;;;5.20;;
22995;SDS011;11664;49.774;8.650;2023-02-26T07:40:49;5.07;;;4.30;;
22995;SDS011;11664;49.774;8.650;2023-02-26T07:43:14;4.82;;;4.43;;
22995;SDS011;11664;49.774;8.650;2023-02-26T07:45:49;4.35;;;4.10;;
22995;SDS011;11664;49.774;8.650;2023-02-26T07:48:19;4.22;;;3.78;;
22995;SDS011;11664;49.774;8.650;2023-02-26T07:50:45;5.07;;;4.82;;
22995;SDS011;11664;49.774;8.650;2023-02-26T07:53:10;5.05;;;3.30;;
22995;SDS011;11664;49.774;8.650;2023-02-26T07:55:57;4.13;;;3.83;;
22995;SDS011;11664;49.774;8.650;2023-02-26T07:58:38;4.18;;;3.88;;
22995;SDS011;11664;49.774;8.650;2023-02-26T08:01:22;5.53;;;4.88;;
22995;SDS011;11664;49.774;8.650;2023-02-26T08:03:48;3.88;;;3.20;;
22995;SDS011;11664;49.774;8.650;2023-02-26T08:06:26;4.80;;;4.53;;
22995;SDS011;11664;49.774;8.650;2023-02-26T08:08:52;5.75;;;5.13;;
22995;SDS011;11664;49.774;8.650;2023-02-26T08:11:20;7.50;;;3.72;;
22995;SDS011;11664;49.774;8.650;2023-02-26T08:13:46;4.53;;;4.22;;
22995;SDS011;11664;49.774;8.650;2023-02-26T08:16:14;6.97;;;3.40;;
22995;SDS011;11664;49.774;8.650;2023-02-26T08:18:58;4.85;;;4.45;;
22995;SDS011;11664;49.774;8.650;2023-02-26T08:21:27;3.45;;;3.25;;
22995;SDS011;11664;49.774;8.650;2023-02-26T08:23:56;3.97;;;3.67;;
22995;SDS011;11664;49.774;8.650;2023-02-26T08:26:27;3.88;;;3.67;;
22995;SDS011;11664;49.774;8.650;2023-02-26T08:28:53;7.75;;;4.40;;
22995;SDS011;11664;49.774;8.650;2023-02-26T08:31:25;10.45;;;4.60;;
22995;SDS011;11664;49.774;8.650;2023-02-26T08:33:52;4.10;;;3.80;;
22995;SDS011;11664;49.774;8.650;2023-02-26T08:36:20;4.00;;;3.80;;
22995;SDS011;11664;49.774;8.650;2023-02-26T08:38:49;4.70;;;3.45;;
22995;SDS011;11664;49.774;8.650;2023-02-26T08:41:21;3.83;;;3.40;;
22995;SDS011;11664;49.774;8.650;2023-02-26T08:43:46;5.43;;;3.83;;
22995;SDS011;11664;49.774;8.650;2023-02-26T08:46:12;3.00;;;2.90;;
22995;SDS011;11664;49.774;8.650;2023-02-26T08:48:44;3.58;;;3.28;;
22995;SDS011;11664;49.774;8.650;2023-02-26T08:51:16;2.90;;;2.80;;
22995;SDS011;11664;49.774;8.650;2023-02-26T08:53:49;3.88;;;3.58;;
22995;SDS011;11664;49.774;8.650;2023-02-26T08:56:21;4.50;;;3.20;;
22995;SDS011;11664;49.774;8.650;2023-02-26T08:58:46;3.40;;;3.20;;
22995;SDS011;11664;49.774;8.650;2023-02-26T09:01:15;3.65;;;3.42;;
22995;SDS011;11664;49.774;8.650;2023-02-26T09:04:04;3.67;;;3.10;;
22995;SDS011;11664;49.774;8.650;2023-02-26T09:06:36;3.40;;;3.20;;
22995;SDS011;11664;49.774;8.650;2023-02-26T09:09:02;5.75;;;3.35;;
22995;SDS011;11664;49.774;8.650;2023-02-26T09:11:31;3.13;;;2.92;;
22995;SDS011;11664;49.774;8.650;2023-02-26T09:13:59;3.08;;;2.83;;
22995;SDS011;11664;49.774;8.650;2023-02-26T09:16:32;3.42;;;3.22;;
22995;SDS011;11664;49.774;8.650;2023-02-26T09:19:04;3.53;;;3.22;;
22995;SDS011;11664;49.774;8.650;2023-02-26T09:21:40;4.43;;;3.00;;
22995;SDS011;11664;49.774;8.650;2023-02-26T09:24:08;3.10;;;2.90;;
22995;SDS011;11664;49.774;8.650;2023-02-26T09:26:43;2.97;;;2.88;;
22995;SDS011;11664;49.774;8.650;2023-02-26T09:29:09;3.58;;;3.28;;
22995;SDS011;11664;49.774;8.650;2023-02-26T09:31:44;3.40;;;3.20;;
22995;SDS011;11664;49.774;8.650;2023-02-26T09:34:10;3.20;;;3.10;;
22995;SDS011;11664;49.774;8.650;2023-02-26T09:36:39;3.28;;;3.08;;
22995;SDS011;11664;49.774;8.650;2023-02-26T09:39:11;3.10;;;2.90;;
22995;SDS011;11664;49.774;8.650;2023-02-26T09:41:48;3.30;;;3.10;;
22995;SDS011;11664;49.774;8.650;2023-02-26T09:44:20;3.53;;;3.33;;
22995;SDS011;11664;49.774;8.650;2023-02-26T09:58:16;3.75;;;3.45;;
22995;SDS011;11664;49.774;8.650;2023-02-26T10:06:49;3.63;;;3.38;;
22995;SDS011;11664;49.774;8.650;2023-02-26T10:09:38;3.28;;;2.97;;
22995;SDS011;11664;49.774;8.650;2023-02-26T10:12:26;2.85;;;2.75;;
22995;SDS011;11664;49.774;8.650;2023-02-26T10:20:55;3.42;;;3.22;;
22995;SDS011;11664;49.774;8.650;2023-02-26T10:26:11;2.95;;;2.85;;
22995;SDS011;11664;49.774;8.650;2023-02-26T10:38:00;3.20;;;3.00;;
22995;SDS011;11664;49.774;8.650;2023-02-26T10:52:27;2.95;;;2.75;;
22995;SDS011;11664;49.774;8.650;2023-02-26T10:57:30;3.10;;;2.90;;
22995;SDS011;11664;49.774;8.650;2023-02-26T11:00:03;2.80;;;2.70;;
22995;SDS011;11664;49.774;8.650;2023-02-26T11:02:34;2.88;;;2.78;;
22995;SDS011;11664;49.774;8.650;2023-02-26T11:05:03;3.03;;;2.83;;
22995;SDS011;11664;49.774;8.650;2023-02-26T11:07:30;3.17;;;2.95;;
22995;SDS011;11664;49.774;8.650;2023-02-26T11:09:57;2.63;;;2.53;;
22995;SDS011;11664;49.774;8.650;2023-02-26T11:12:24;2.80;;;2.70;;
22995;SDS011;11664;49.774;8.650;2023-02-26T11:14:50;2.80;;;2.70;;
22995;SDS011;11664;49.774;8.650;2023-02-26T11:17:18;3.08;;;2.97;;
22995;SDS011;11664;49.774;8.650;2023-02-26T11:19:52;2.90;;;2.70;;
22995;SDS011;11664;49.774;8.650;2023-02-26T11:22:24;2.97;;;2.88;;
22995;SDS011;11664;49.774;8.650;2023-02-26T11:24:54;2.90;;;2.70;;
22995;SDS011;11664;49.774;8.650;2023-02-26T11:27:36;2.83;;;2.63;;
22995;SDS011;11664;49.774;8.650;2023-02-26T11:30:14;2.85;;;2.75;;
22995;SDS011;11664;49.774;8.650;2023-02-26T11:32:49;2.80;;;2.60;;
22995;SDS011;11664;49.774;8.650;2023-02-26T11:35:16;4.85;;;3.05;;
22995;SDS011;11664;49.774;8.650;2023-02-26T11:41:00;3.08;;;2.70;;
22995;SDS011;11664;49.774;8.650;2023-02-26T11:43:26;2.80;;;2.60;;
22995;SDS011;11664;49.774;8.650;2023-02-26T11:46:00;3.10;;;2.90;;
22995;SDS011;11664;49.774;8.650;2023-02-26T11:48:46;3.42;;;3.13;;
22995;SDS011;11664;49.774;8.650;2023-02-26T11:51:13;2.97;;;2.78;;
22995;SDS011;11664;49.774;8.650;2023-02-26T11:53:52;3.80;;;3.30;;
22995;SDS011;11664;49.774;8.650;2023-02-26T11:56:40;3.88;;;2.47;;
22995;SDS011;11664;49.774;8.650;2023-02-26T11:59:07;2.67;;;2.55;;
22995;SDS011;11664;49.774;8.650;2023-02-26T12:01:48;3.42;;;3.22;;
22995;SDS011;11664;49.774;8.650;2023-02-26T12:04:20;4.60;;;2.70;;
22995;SDS011;11664;49.774;8.650;2023-02-26T12:06:49;3.37;;;3.07;;
22995;SDS011;11664;49.774;8.650;2023-02-26T12:09:19;3.22;;;3.03;;
22995;SDS011;11664;49.774;8.650;2023-02-26T12:15:01;4.30;;;3.03;;
22995;SDS011;11664;49.774;8.650;2023-02-26T12:23:21;3.00;;;2.80;;
22995;SDS011;11664;49.774;8.650;2023-02-26T12:26:46;2.70;;;2.60;;
22995;SDS011;11664;49.774;8.650;2023-02-26T12:40:53;2.58;;;2.47;;
22995;SDS011;11664;49.774;8.650;2023-02-26T12:49:05;3.83;;;2.80;;
22995;SDS011;11664;49.774;8.650;2023-02-26T12:51:52;2.90;;;2.80;;
22995;SDS011;11664;49.774;8.650;2023-02-26T13:00:37;2.58;;;2.47;;
22995;SDS011;11664;49.774;8.650;2023-02-26T13:03:19;2.90;;;2.80;;
22995;SDS011;11664;49.774;8.650;2023-02-26T13:20:23;2.72;;;2.63;;
22995;SDS011;11664;49.774;8.650;2023-02-26T13:23:03;2.80;;;2.70;;
22995;SDS011;11664;49.774;8.650;2023-02-26T13:25:53;2.88;;;2.78;;
22995;SDS011;11664;49.774;8.650;2023-02-26T13:34:25;3.65;;;3.08;;
22995;SDS011;11664;49.774;8.650;2023-02-26T13:51:28;3.30;;;3.00;;
22995;SDS011;11664;49.774;8.650;2023-02-26T13:56:48;5.35;;;3.95;;
22995;SDS011;11664;49.774;8.650;2023-02-26T14:05:31;3.50;;;3.00;;
22995;SDS011;11664;49.774;8.650;2023-02-26T14:11:23;2.78;;;2.63;;
22995;SDS011;11664;49.774;8.650;2023-02-26T14:14:21;2.70;;;2.60;;
22995;SDS011;11664;49.774;8.650;2023-02-26T14:19:33;2.92;;;2.72;;
22995;SDS011;11664;49.774;8.650;2023-02-26T14:37:10;2.80;;;2.70;;
22995;SDS011;11664;49.774;8.650;2023-02-26T14:39:44;3.00;;;2.90;;
22995;SDS011;11664;49.774;8.650;2023-02-26T14:42:17;3.17;;;2.97;;
22995;SDS011;11664;49.774;8.650;2023-02-26T14:44:57;4.43;;;2.60;;
22995;SDS011;11664;49.774;8.650;2023-02-26T14:47:50;2.60;;;2.50;;
22995;SDS011;11664;49.774;8.650;2023-02-26T14:50:19;2.92;;;2.83;;
22995;SDS011;11664;49.774;8.650;2023-02-26T14:58:44;2.90;;;2.70;;
22995;SDS011;11664;49.774;8.650;2023-02-26T15:01:39;2.65;;;2.55;;
22995;SDS011;11664;49.774;8.650;2023-02-26T15:09:54;2.60;;;2.50;;
22995;SDS011;11664;49.774;8.650;2023-02-26T15:23:57;2.80;;;2.70;;
22995;SDS011;11664;49.774;8.650;2023-02-26T15:26:25;2.80;;;2.60;;
22995;SDS011;11664;49.774;8.650;2023-02-26T15:28:56;2.55;;;2.45;;
22995;SDS011;11664;49.774;8.650;2023-02-26T15:31:32;2.88;;;2.67;;
22995;SDS011;11664;49.774;8.650;2023-02-26T15:34:01;2.70;;;2.60;;
22995;SDS011;11664;49.774;8.650;2023-02-26T15:36:28;2.50;;;2.40;;
22995;SDS011;11664;49.774;8.650;2023-02-26T15:38:58;2.50;;;2.40;;
22995;SDS011;11664;49.774;8.650;2023-02-26T15:41:26;2.50;;;2.40;;
22995;SDS011;11664;49.774;8.650;2023-02-26T15:43:58;2.78;;;2.58;;
22995;SDS011;11664;49.774;8.650;2023-02-26T15:46:38;2.70;;;2.50;;
22995;SDS011;11664;49.774;8.650;2023-02-26T15:49:07;2.60;;;2.40;;
22995;SDS011;11664;49.774;8.650;2023-02-26T15:51:37;2.45;;;2.35;;
22995;SDS011;11664;49.774;8.650;2023-02-26T15:54:04;2.58;;;2.47;;
22995;SDS011;11664;49.774;8.650;2023-02-26T15:56:32;2.97;;;2.65;;
22995;SDS011;11664;49.774;8.650;2023-02-26T15:59:01;3.05;;;2.50;;
22995;SDS011;11664;49.774;8.650;2023-02-26T16:04:12;2.95;;;2.75;;
22995;SDS011;11664;49.774;8.650;2023-02-26T16:06:41;3.17;;;3.00;;
22995;SDS011;11664;49.774;8.650;2023-02-26T16:09:15;2.58;;;2.47;;
22995;SDS011;11664;49.774;8.650;2023-02-26T16:11:43;2.50;;;2.40;;
22995;SDS011;11664;49.774;8.650;2023-02-26T16:14:12;2.80;;;2.60;;
22995;SDS011;11664;49.774;8.650;2023-02-26T16:16:47;2.75;;;2.55;;
22995;SDS011;11664;49.774;8.650;2023-02-26T16:22:20;2.65;;;2.55;;
22995;SDS011;11664;49.774;8.650;2023-02-26T16:24:56;4.67;;;2.70;;
22995;SDS011;11664;49.774;8.650;2023-02-26T16:27:40;2.80;;;2.65;;
22995;SDS011;11664;49.774;8.650;2023-02-26T16:30:12;4.55;;;2.72;;
22995;SDS011;11664;49.774;8.650;2023-02-26T16:32:42;2.88;;;2.75;;
22995;SDS011;11664;49.774;8.650;2023-02-26T16:35:10;2.75;;;2.65;;
22995;SDS011;11664;49.774;8.650;2023-02-26T16:37:46;2.60;;;2.50;;
22995;SDS011;11664;49.774;8.650;2023-02-26T16:40:17;2.65;;;2.55;;
22995;SDS011;11664;49.774;8.650;2023-02-26T16:45:21;2.90;;;2.70;;
22995;SDS011;11664;49.774;8.650;2023-02-26T16:48:05;3.70;;;2.50;;
22995;SDS011;11664;49.774;8.650;2023-02-26T16:50:40;2.60;;;2.50;;
22995;SDS011;11664;49.774;8.650;2023-02-26T16:53:07;2.50;;;2.40;;
22995;SDS011;11664;49.774;8.650;2023-02-26T16:55:54;3.65;;;3.15;;
22995;SDS011;11664;49.774;8.650;2023-02-26T16:58:20;3.25;;;3.05;;
22995;SDS011;11664;49.774;8.650;2023-02-26T17:00:49;2.70;;;2.60;;
22995;SDS011;11664;49.774;8.650;2023-02-26T17:03:22;2.90;;;2.72;;
22995;SDS011;11664;49.774;8.650;2023-02-26T17:05:54;7.85;;;4.47;;
22995;SDS011;11664;49.774;8.650;2023-02-26T17:08:31;3.30;;;3.10;;
22995;SDS011;11664;49.774;8.650;2023-02-26T17:11:08;2.92;;;2.50;;
22995;SDS011;11664;49.774;8.650;2023-02-26T17:13:42;2.67;;;2.47;;
22995;SDS011;11664;49.774;8.650;2023-02-26T17:16:09;2.90;;;2.70;;
22995;SDS011;11664;49.774;8.650;2023-02-26T17:18:36;5.18;;;3.78;;
22995;SDS011;11664;49.774;8.650;2023-02-26T17:21:02;4.35;;;3.00;;
22995;SDS011;11664;49.774;8.650;2023-02-26T17:23:34;7.32;;;6.05;;
22995;SDS011;11664;49.774;8.650;2023-02-26T17:26:02;3.55;;;3.22;;
22995;SDS011;11664;49.774;8.650;2023-02-26T17:28:30;2.72;;;2.63;;
22995;SDS011;11664;49.774;8.650;2023-02-26T17:31:01;3.20;;;3.00;;
22995;SDS011;11664;49.774;8.650;2023-02-26T17:33:28;5.55;;;4.40;;
22995;SDS011;11664;49.774;8.650;2023-02-26T17:35:57;6.85;;;4.13;;
22995;SDS011;11664;49.774;8.650;2023-02-26T17:38:24;6.70;;;3.90;;
22995;SDS011;11664;49.774;8.650;2023-02-26T17:40:50;3.20;;;3.00;;
22995;SDS011;11664;49.774;8.650;2023-02-26T17:43:19;7.07;;;5.18;;
22995;SDS011;11664;49.774;8.650;2023-02-26T17:45:49;27.92;;;10.77;;
22995;SDS011;11664;49.774;8.650;2023-02-26T17:48:17;8.13;;;4.75;;
22995;SDS011;11664;49.774;8.650;2023-02-26T17:50:49;5.85;;;3.97;;
22995;SDS011;11664;49.774;8.650;2023-02-26T17:53:19;11.75;;;5.65;;
22995;SDS011;11664;49.774;8.650;2023-02-26T17:55:46;6.85;;;4.70;;
22995;SDS011;11664;49.774;8.650;2023-02-26T17:58:15;7.40;;;4.78;;
22995;SDS011;11664;49.774;8.650;2023-02-26T18:00:48;6.50;;;4.30;;
22995;SDS011;11664;49.774;8.650;2023-02-26T18:03:16;4.85;;;2.92;;
22995;SDS011;11664;49.774;8.650;2023-02-26T18:05:44;8.93;;;6.75;;
22995;SDS011;11664;49.774;8.650;2023-02-26T18:08:24;4.55;;;3.70;;
22995;SDS011;11664;49.774;8.650;2023-02-26T18:10:51;3.75;;;3.53;;
22995;SDS011;11664;49.774;8.650;2023-02-26T18:13:18;3.20;;;2.97;;
22995;SDS011;11664;49.774;8.650;2023-02-26T18:15:44;2.92;;;2.80;;
22995;SDS011;11664;49.774;8.650;2023-02-26T18:18:10;2.80;;;2.70;;
22995;SDS011;11664;49.774;8.650;2023-02-26T18:20:37;3.17;;;2.97;;
22995;SDS011;11664;49.774;8.650;2023-02-26T18:23:03;3.40;;;3.10;;
22995;SDS011;11664;49.774;8.650;2023-02-26T18:25:31;3.33;;;3.13;;
22995;SDS011;11664;49.774;8.650;2023-02-26T18:27:57;3.40;;;3.20;;
22995;SDS011;11664;49.774;8.650;2023-02-26T18:30:26;3.63;;;3.33;;
22995;SDS011;11664;49.774;8.650;2023-02-26T18:32:53;2.83;;;2.72;;
22995;SDS011;11664;49.774;8.650;2023-02-26T18:35:19;3.25;;;3.08;;
22995;SDS011;11664;49.774;8.650;2023-02-26T18:37:45;2.83;;;2.63;;
22995;SDS011;11664;49.774;8.650;2023-02-26T18:40:12;3.38;;;3.17;;
22995;SDS011;11664;49.774;8.650;2023-02-26T18:42:39;2.90;;;2.80;;
22995;SDS011;11664;49.774;8.650;2023-02-26T18:45:05;2.80;;;2.70;;
22995;SDS011;11664;49.774;8.650;2023-02-26T18:50:53;3.45;;;3.25;;
22995;SDS011;11664;49.774;8.650;2023-02-26T18:53:23;2.70;;;2.60;;
22995;SDS011;11664;49.774;8.650;2023-02-26T18:55:50;2.80;;;2.70;;
22995;SDS011;11664;49.774;8.650;2023-02-26T18:58:18;3.72;;;2.92;;
22995;SDS011;11664;49.774;8.650;2023-02-26T19:00:46;3.15;;;2.95;;
22995;SDS011;11664;49.774;8.650;2023-02-26T19:03:12;2.90;;;2.67;;
22995;SDS011;11664;49.774;8.650;2023-02-26T19:05:37;3.50;;;3.20;;
22995;SDS011;11664;49.774;8.650;2023-02-26T19:08:03;4.00;;;3.70;;
22995;SDS011;11664;49.774;8.650;2023-02-26T19:10:30;6.07;;;5.47;;
22995;SDS011;11664;49.774;8.650;2023-02-26T19:12:57;3.70;;;3.50;;
22995;SDS011;11664;49.774;8.650;2023-02-26T19:15:23;11.57;;;5.88;;
22995;SDS011;11664;49.774;8.650;2023-02-26T19:17:49;22.58;;;8.40;;
22995;SDS011;11664;49.774;8.650;2023-02-26T19:20:16;25.38;;;7.43;;
22995;SDS011;11664;49.774;8.650;2023-02-26T19:22:42;36.42;;;8.48;;
22995;SDS011;11664;49.774;8.650;2023-02-26T19:25:09;78.72;;;16.83;;
22995;SDS011;11664;49.774;8.650;2023-02-26T19:27:35;51.90;;;13.30;;
22995;SDS011;11664;49.774;8.650;2023-02-26T19:30:02;51.83;;;14.07;;
22995;SDS011;11664;49.774;8.650;2023-02-26T19:32:29;32.40;;;11.32;;
22995;SDS011;11664;49.774;8.650;2023-02-26T20:06:15;10.77;;;6.00;;
22995;SDS011;11664;49.774;8.650;2023-02-26T20:08:41;10.48;;;5.40;;
22995;SDS011;11664;49.774;8.650;2023-02-26T20:11:06;4.95;;;4.22;;
22995;SDS011;11664;49.774;8.650;2023-02-26T20:13:32;7.13;;;4.68;;